Time;durP1;ratioP1;P1;durP2;ratioP2;P2;SDS_P1;SDS_P2;PMS_P1;PMS_P2;Temp;Humidity;BMP_temperature;BMP_pressure;BME280_temperature;BME280_humidity;BME280_pressure;Samples;Min_cycle;Max_cycle;Signal;HPM_P1;HPM_P2
2023/05/27 00:00:47;;;;;;;20.60;5.33;;;;;;;;;;5001809;28;20284;-83
2023/05/27 00:03:14;;;;;;;15.00;5.33;;;;;;;;;;5015074;28;20189;-83
2023/05/27 00:05:40;;;;;;;14.60;4.80;;;;;;;;;;5018037;28;20211;-83
2023/05/27 00:08:06;;;;;;;18.90;4.87;;;;;;;;;;5000777;28;20212;-83
2023/05/27 00:10:32;;;;;;;15.33;5.20;;;;;;;;;;5017024;28;20182;-83
2023/05/27 00:12:58;;;;;;;16.20;5.23;;;;;;;;;;5017140;28;20180;-83
2023/05/27 00:15:24;;;;;;;16.27;5.00;;;;;;;;;;5000965;28;20177;-83
2023/05/27 00:17:50;;;;;;;14.63;4.93;;;;;;;;;;5000568;28;20181;-83
2023/05/27 00:20:16;;;;;;;11.03;4.77;;;;;;;;;;5016919;28;20220;-80
2023/05/27 00:22:42;;;;;;;16.87;5.83;;;;;;;;;;5017065;28;20264;-80
2023/05/27 00:25:08;;;;;;;17.23;4.90;;;;;;;;;;5017095;28;20192;-80
2023/05/27 00:27:35;;;;;;;14.77;5.40;;;;;;;;;;5000475;28;20244;-80
2023/05/27 00:30:02;;;;;;;17.37;5.40;;;;;;;;;;5000531;28;20216;-80
2023/05/27 00:32:28;;;;;;;14.80;5.43;;;;;;;;;;4997348;28;20207;-80
2023/05/27 00:34:54;;;;;;;15.27;5.13;;;;;;;;;;4981319;28;20249;-83
2023/05/27 00:37:20;;;;;;;18.43;5.13;;;;;;;;;;4980685;28;20193;-83
2023/05/27 00:39:46;;;;;;;17.70;5.47;;;;;;;;;;4996997;28;20182;-83
2023/05/27 00:42:13;;;;;;;20.13;5.90;;;;;;;;;;4980907;28;20209;-83
2023/05/27 00:44:39;;;;;;;15.50;5.03;;;;;;;;;;4989812;28;20190;-83
2023/05/27 00:47:06;;;;;;;17.50;5.23;;;;;;;;;;5015877;28;20228;-83
2023/05/27 00:49:32;;;;;;;18.03;4.80;;;;;;;;;;4999759;28;20185;-82
2023/05/27 00:51:58;;;;;;;14.20;4.83;;;;;;;;;;5000125;28;20184;-82
2023/05/27 00:54:24;;;;;;;18.73;5.40;;;;;;;;;;4999533;28;20185;-83
2023/05/27 00:56:50;;;;;;;20.50;5.83;;;;;;;;;;5017172;28;20192;-82
2023/05/27 00:59:16;;;;;;;17.20;5.40;;;;;;;;;;4999741;28;20243;-83
2023/05/27 01:01:43;;;;;;;17.27;5.77;;;;;;;;;;5015714;28;20214;-83
2023/05/27 01:04:12;;;;;;;18.07;5.40;;;;;;;;;;5015552;28;20284;-83
2023/05/27 01:06:55;;;;;;;18.77;5.60;;;;;;;;;;4999887;28;20213;-83
2023/05/27 01:09:27;;;;;;;14.57;5.47;;;;;;;;;;5028014;28;20184;-83
2023/05/27 01:12:02;;;;;;;16.93;5.43;;;;;;;;;;5035421;28;20180;-83
2023/05/27 01:14:30;;;;;;;17.27;5.83;;;;;;;;;;5024560;28;20185;-83
2023/05/27 01:16:57;;;;;;;17.37;5.53;;;;;;;;;;5016948;28;20192;-85
2023/05/27 01:19:37;;;;;;;15.20;5.47;;;;;;;;;;5016670;28;20181;-84
2023/05/27 01:22:03;;;;;;;16.70;5.50;;;;;;;;;;5016533;28;20174;-84
2023/05/27 01:24:29;;;;;;;18.83;5.60;;;;;;;;;;4999065;28;20220;-84
2023/05/27 01:26:56;;;;;;;19.70;4.97;;;;;;;;;;5011177;28;20230;-83
2023/05/27 01:29:22;;;;;;;14.97;5.67;;;;;;;;;;5013287;28;20185;-83
2023/05/27 01:31:56;;;;;;;14.53;5.57;;;;;;;;;;5015531;28;20260;-83
2023/05/27 01:34:26;;;;;;;16.07;5.27;;;;;;;;;;5016199;28;20166;-83
2023/05/27 01:36:57;;;;;;;15.93;5.50;;;;;;;;;;5016259;28;20219;-83
2023/05/27 01:39:23;;;;;;;19.80;6.43;;;;;;;;;;5014810;28;20181;-83
2023/05/27 01:41:50;;;;;;;15.53;5.30;;;;;;;;;;5014733;28;20203;-80
2023/05/27 01:44:18;;;;;;;13.27;5.67;;;;;;;;;;5015067;28;20275;-80
2023/05/27 01:46:44;;;;;;;21.53;5.80;;;;;;;;;;5014961;28;20201;-80
2023/05/27 01:49:10;;;;;;;17.97;6.23;;;;;;;;;;5003537;28;20186;-80
2023/05/27 01:51:37;;;;;;;15.97;5.30;;;;;;;;;;5014973;28;20181;-80
2023/05/27 01:54:03;;;;;;;19.27;5.83;;;;;;;;;;4998670;28;20208;-80
2023/05/27 01:56:29;;;;;;;17.97;5.80;;;;;;;;;;5014028;28;20189;-80
2023/05/27 01:58:55;;;;;;;20.83;5.60;;;;;;;;;;5015494;28;20239;-91
2023/05/27 02:01:22;;;;;;;21.27;5.70;;;;;;;;;;5001074;28;20188;-90
2023/05/27 02:03:48;;;;;;;18.10;5.67;;;;;;;;;;5021672;28;20184;-90
2023/05/27 02:06:14;;;;;;;19.73;5.87;;;;;;;;;;4999354;28;20178;-91
2023/05/27 02:08:40;;;;;;;12.77;5.50;;;;;;;;;;5016437;28;20292;-90
2023/05/27 02:11:06;;;;;;;18.37;5.90;;;;;;;;;;4999231;28;20271;-91
2023/05/27 02:13:32;;;;;;;14.60;5.57;;;;;;;;;;5015022;28;20181;-91
2023/05/27 02:15:59;;;;;;;14.07;5.30;;;;;;;;;;4998347;28;20185;-80
2023/05/27 02:18:25;;;;;;;19.77;6.13;;;;;;;;;;5014281;28;20187;-81
2023/05/27 02:20:51;;;;;;;16.80;6.30;;;;;;;;;;5014465;28;20264;-80
2023/05/27 02:23:17;;;;;;;14.97;5.53;;;;;;;;;;4997703;28;20185;-80
2023/05/27 02:25:43;;;;;;;19.60;6.00;;;;;;;;;;4997202;28;20192;-80
2023/05/27 02:28:10;;;;;;;15.70;5.37;;;;;;;;;;4996824;28;20236;-84
2023/05/27 02:30:36;;;;;;;17.63;5.67;;;;;;;;;;5013933;28;20253;-83
2023/05/27 02:33:02;;;;;;;15.40;5.53;;;;;;;;;;5031171;28;20180;-91
2023/05/27 02:35:28;;;;;;;18.23;5.97;;;;;;;;;;5014225;28;20185;-91
2023/05/27 02:37:54;;;;;;;15.33;5.37;;;;;;;;;;5014494;28;20196;-89
2023/05/27 02:40:26;;;;;;;21.50;5.60;;;;;;;;;;5030600;28;20185;-90
2023/05/27 02:42:52;;;;;;;26.00;6.50;;;;;;;;;;5015082;28;20189;-91
2023/05/27 02:45:18;;;;;;;17.57;6.50;;;;;;;;;;5014145;28;20199;-91
2023/05/27 02:47:44;;;;;;;20.27;6.10;;;;;;;;;;5013962;28;20213;-90
2023/05/27 02:50:10;;;;;;;18.30;6.30;;;;;;;;;;4997930;28;20183;-90
2023/05/27 02:52:36;;;;;;;20.07;6.13;;;;;;;;;;4997675;28;20189;-90
2023/05/27 02:55:03;;;;;;;15.20;5.77;;;;;;;;;;5020841;28;20184;-90
2023/05/27 02:57:29;;;;;;;14.17;5.80;;;;;;;;;;5033461;28;20180;-91
2023/05/27 02:59:55;;;;;;;18.30;6.10;;;;;;;;;;5033759;28;20181;-90
2023/05/27 03:02:21;;;;;;;15.53;5.90;;;;;;;;;;4998550;28;20203;-90
2023/05/27 03:04:47;;;;;;;21.67;6.60;;;;;;;;;;5013935;28;20197;-90
2023/05/27 03:07:13;;;;;;;18.37;6.17;;;;;;;;;;4997885;28;20228;-90
2023/05/27 03:09:39;;;;;;;18.57;5.97;;;;;;;;;;5027325;28;20184;-91
2023/05/27 03:12:06;;;;;;;18.53;6.30;;;;;;;;;;5034208;28;20173;-91
2023/05/27 03:14:32;;;;;;;16.43;5.87;;;;;;;;;;5020832;28;20185;-90
2023/05/27 03:16:58;;;;;;;17.50;6.17;;;;;;;;;;5017687;28;20195;-91
2023/05/27 03:19:24;;;;;;;18.87;6.70;;;;;;;;;;5033452;28;20240;-91
2023/05/27 03:21:51;;;;;;;16.73;5.90;;;;;;;;;;5016626;28;20197;-84
2023/05/27 03:24:17;;;;;;;17.97;6.03;;;;;;;;;;5012670;28;20189;-83
2023/05/27 03:26:43;;;;;;;15.00;5.37;;;;;;;;;;4994499;28;20244;-83
2023/05/27 03:29:09;;;;;;;15.70;5.80;;;;;;;;;;5009809;28;20178;-83
2023/05/27 03:31:35;;;;;;;18.70;6.27;;;;;;;;;;4993602;28;20182;-83
2023/05/27 03:34:01;;;;;;;18.37;6.20;;;;;;;;;;4977377;28;20182;-80
2023/05/27 03:36:28;;;;;;;18.00;5.97;;;;;;;;;;5000836;28;20192;-80
2023/05/27 03:38:54;;;;;;;20.37;6.40;;;;;;;;;;4996323;28;20181;-83
2023/05/27 03:41:20;;;;;;;17.13;6.10;;;;;;;;;;5042143;22;20239;-83
2023/05/27 03:43:46;;;;;;;15.80;5.67;;;;;;;;;;5052701;28;20301;-83
2023/05/27 03:46:12;;;;;;;22.43;6.47;;;;;;;;;;5032646;28;20192;-83
2023/05/27 03:48:38;;;;;;;22.63;5.90;;;;;;;;;;5031629;28;20220;-83
2023/05/27 03:51:05;;;;;;;21.20;7.07;;;;;;;;;;5016377;28;20181;-83
2023/05/27 03:53:31;;;;;;;17.90;5.93;;;;;;;;;;5032665;28;20176;-83
2023/05/27 03:55:57;;;;;;;23.93;6.27;;;;;;;;;;5016200;28;20238;-80
2023/05/27 03:58:23;;;;;;;21.97;6.70;;;;;;;;;;5032722;28;20180;-80
2023/05/27 04:00:49;;;;;;;16.37;6.03;;;;;;;;;;5016933;28;20184;-80
2023/05/27 04:03:15;;;;;;;17.87;6.53;;;;;;;;;;5036004;28;20191;-80
2023/05/27 04:05:41;;;;;;;19.67;6.00;;;;;;;;;;5049705;28;20191;-80
2023/05/27 04:08:07;;;;;;;18.20;6.07;;;;;;;;;;5034899;28;20302;-80
2023/05/27 04:10:33;;;;;;;21.80;6.80;;;;;;;;;;5052540;28;20188;-80
2023/05/27 04:12:59;;;;;;;15.20;5.67;;;;;;;;;;5031711;28;20188;-91
2023/05/27 04:15:26;;;;;;;15.87;6.13;;;;;;;;;;5016445;28;20263;-91
2023/05/27 04:17:52;;;;;;;17.33;6.07;;;;;;;;;;5016541;28;20315;-91
2023/05/27 04:20:18;;;;;;;17.30;6.40;;;;;;;;;;5032922;28;20184;-91
2023/05/27 04:22:44;;;;;;;23.93;6.63;;;;;;;;;;5016407;28;20195;-91
2023/05/27 04:25:10;;;;;;;15.07;5.33;;;;;;;;;;5039076;28;20212;-91
2023/05/27 04:27:36;;;;;;;16.73;5.70;;;;;;;;;;5035276;28;20239;-91
2023/05/27 04:30:06;;;;;;;15.77;6.17;;;;;;;;;;5051888;28;20204;-81
2023/05/27 04:32:38;;;;;;;17.27;6.60;;;;;;;;;;5016189;28;20188;-80
2023/05/27 04:35:08;;;;;;;17.60;6.30;;;;;;;;;;5033466;28;20191;-80
2023/05/27 04:37:36;;;;;;;22.00;6.83;;;;;;;;;;5032454;28;20242;-80
2023/05/27 04:40:03;;;;;;;16.70;6.37;;;;;;;;;;5048969;28;20188;-80
2023/05/27 04:42:29;;;;;;;21.47;6.43;;;;;;;;;;5035862;28;20234;-80
2023/05/27 04:44:55;;;;;;;17.20;6.80;;;;;;;;;;5050599;28;20184;-91
2023/05/27 04:47:22;;;;;;;17.50;6.50;;;;;;;;;;5051287;28;20215;-90
2023/05/27 04:49:48;;;;;;;18.00;6.20;;;;;;;;;;5038536;28;20198;-90
2023/05/27 04:52:14;;;;;;;18.77;5.77;;;;;;;;;;5039536;28;20247;-91
2023/05/27 04:54:40;;;;;;;21.07;6.40;;;;;;;;;;5039850;28;20191;-91
2023/05/27 04:57:06;;;;;;;20.30;6.73;;;;;;;;;;5039264;28;20176;-84
2023/05/27 04:59:46;;;;;;;14.13;6.77;;;;;;;;;;5027239;28;20288;-83
2023/05/27 05:02:21;;;;;;;18.00;6.53;;;;;;;;;;5035590;28;20176;-83
2023/05/27 05:04:48;;;;;;;21.33;6.93;;;;;;;;;;5043958;28;20199;-83
2023/05/27 05:07:14;;;;;;;19.07;6.73;;;;;;;;;;5050107;28;20216;-83
2023/05/27 05:09:40;;;;;;;23.03;6.63;;;;;;;;;;5054841;28;20219;-83
2023/05/27 05:12:07;;;;;;;17.87;6.50;;;;;;;;;;5038843;28;20245;-83
2023/05/27 05:14:33;;;;;;;22.37;6.53;;;;;;;;;;5038764;28;20249;-83
2023/05/27 05:16:59;;;;;;;18.40;6.67;;;;;;;;;;5038771;28;20188;-83
2023/05/27 05:19:25;;;;;;;21.53;7.10;;;;;;;;;;5053040;28;20195;-84
2023/05/27 05:21:51;;;;;;;19.40;6.47;;;;;;;;;;5035099;28;20196;-84
2023/05/27 05:24:17;;;;;;;15.20;6.50;;;;;;;;;;5035020;28;20181;-84
2023/05/27 05:26:44;;;;;;;18.10;6.93;;;;;;;;;;5035216;28;20200;-84
2023/05/27 05:29:10;;;;;;;19.37;6.83;;;;;;;;;;5037787;28;20240;-84
2023/05/27 05:31:37;;;;;;;18.77;6.90;;;;;;;;;;5052418;28;20184;-84
2023/05/27 05:34:03;;;;;;;19.70;6.90;;;;;;;;;;5053465;28;20218;-84
2023/05/27 05:36:29;;;;;;;19.50;6.83;;;;;;;;;;5038215;28;20246;-80
2023/05/27 05:38:55;;;;;;;23.10;6.80;;;;;;;;;;5020464;28;20236;-80
2023/05/27 05:41:21;;;;;;;26.80;7.63;;;;;;;;;;5047430;28;20227;-80
2023/05/27 05:43:47;;;;;;;21.13;6.80;;;;;;;;;;5038338;28;20188;-80
2023/05/27 05:46:13;;;;;;;19.03;6.53;;;;;;;;;;5038332;28;20195;-80
2023/05/27 05:48:39;;;;;;;25.67;7.07;;;;;;;;;;5031385;28;20220;-80
2023/05/27 05:51:05;;;;;;;21.30;7.23;;;;;;;;;;5029310;28;20181;-80
2023/05/27 05:53:32;;;;;;;22.77;6.70;;;;;;;;;;5038055;28;20234;-89
2023/05/27 05:55:58;;;;;;;19.20;6.77;;;;;;;;;;5051250;28;20231;-90
2023/05/27 05:58:24;;;;;;;24.17;6.77;;;;;;;;;;5042206;28;20176;-89
2023/05/27 06:00:50;;;;;;;27.13;6.50;;;;;;;;;;5043353;28;20271;-89
2023/05/27 06:03:16;;;;;;;21.57;7.23;;;;;;;;;;5035282;28;20208;-87
2023/05/27 06:05:42;;;;;;;19.33;6.60;;;;;;;;;;5054502;28;20202;-89
2023/05/27 06:08:08;;;;;;;21.03;6.77;;;;;;;;;;5054085;28;20216;-89
2023/05/27 06:10:35;;;;;;;18.30;6.73;;;;;;;;;;5038011;28;20187;-82
2023/05/27 06:13:01;;;;;;;19.23;7.47;;;;;;;;;;5054862;28;20182;-82
2023/05/27 06:15:27;;;;;;;20.77;7.10;;;;;;;;;;5053375;28;20183;-82
2023/05/27 06:17:54;;;;;;;25.03;6.90;;;;;;;;;;5034370;28;20196;-83
2023/05/27 06:20:22;;;;;;;19.37;7.10;;;;;;;;;;5039407;28;20188;-82
2023/05/27 06:22:48;;;;;;;20.97;7.00;;;;;;;;;;5042347;28;20177;-82
2023/05/27 06:25:15;;;;;;;16.70;7.70;;;;;;;;;;5027641;28;20187;-82
2023/05/27 06:27:41;;;;;;;18.97;7.00;;;;;;;;;;5027774;28;20208;-82
2023/05/27 06:30:07;;;;;;;21.53;7.47;;;;;;;;;;5035194;28;20188;-82
2023/05/27 06:32:33;;;;;;;23.07;7.73;;;;;;;;;;5037673;28;20180;-82
2023/05/27 06:34:59;;;;;;;20.43;6.90;;;;;;;;;;5051770;28;20187;-83
2023/05/27 06:37:25;;;;;;;20.27;6.97;;;;;;;;;;5026750;28;20191;-82
2023/05/27 06:39:51;;;;;;;20.00;6.83;;;;;;;;;;5036242;28;20201;-83
2023/05/27 06:42:18;;;;;;;19.70;7.17;;;;;;;;;;5034003;28;20263;-80
2023/05/27 06:44:44;;;;;;;20.27;7.70;;;;;;;;;;5034091;28;20172;-83
2023/05/27 06:47:11;;;;;;;24.87;7.47;;;;;;;;;;5033880;28;20213;-83
2023/05/27 06:49:37;;;;;;;20.20;6.63;;;;;;;;;;5036620;28;20188;-83
2023/05/27 06:52:04;;;;;;;17.80;7.13;;;;;;;;;;5053596;28;20172;-83
2023/05/27 06:54:30;;;;;;;22.80;7.33;;;;;;;;;;5053352;28;20183;-83
2023/05/27 06:56:56;;;;;;;22.60;7.27;;;;;;;;;;5053026;28;20195;-83
2023/05/27 06:59:22;;;;;;;22.17;7.10;;;;;;;;;;5053557;28;20184;-90
2023/05/27 07:01:48;;;;;;;23.83;7.43;;;;;;;;;;5037174;28;20184;-89
2023/05/27 07:04:14;;;;;;;17.10;6.70;;;;;;;;;;5053389;28;20192;-90
2023/05/27 07:06:40;;;;;;;18.60;7.50;;;;;;;;;;5033470;28;20212;-90
2023/05/27 07:09:06;;;;;;;23.17;7.87;;;;;;;;;;5036712;28;20226;-90
2023/05/27 07:11:34;;;;;;;22.07;7.03;;;;;;;;;;5033448;28;20251;-90
2023/05/27 07:14:00;;;;;;;19.55;7.43;;;;;;;;;;5052748;28;20424;-90
2023/05/27 07:16:26;;;;;;;20.23;6.63;;;;;;;;;;5033311;28;20184;-84
2023/05/27 07:18:52;;;;;;;20.77;7.03;;;;;;;;;;5033406;28;20180;-84
2023/05/27 07:21:18;;;;;;;21.90;6.67;;;;;;;;;;5017164;28;20241;-83
2023/05/27 07:23:44;;;;;;;18.73;7.37;;;;;;;;;;5033567;28;20238;-84
2023/05/27 07:26:10;;;;;;;21.23;7.27;;;;;;;;;;5017260;28;20238;-83
2023/05/27 07:28:37;;;;;;;18.10;7.07;;;;;;;;;;5033284;28;20216;-84
2023/05/27 07:31:03;;;;;;;17.83;6.77;;;;;;;;;;5017205;28;20240;-84
2023/05/27 07:33:29;;;;;;;22.93;6.83;;;;;;;;;;5033312;28;20183;-81
2023/05/27 07:35:55;;;;;;;19.30;6.30;;;;;;;;;;5016804;28;20226;-81
2023/05/27 07:38:21;;;;;;;19.20;6.70;;;;;;;;;;5033325;28;20185;-81
2023/05/27 07:40:47;;;;;;;19.70;6.70;;;;;;;;;;5043841;28;20251;-79
2023/05/27 07:43:13;;;;;;;20.60;6.77;;;;;;;;;;5033240;28;20177;-79
2023/05/27 07:45:39;;;;;;;16.77;6.57;;;;;;;;;;5033670;28;20180;-80
2023/05/27 07:48:05;;;;;;;18.90;6.83;;;;;;;;;;5033062;28;20212;-79
2023/05/27 07:50:31;;;;;;;17.97;6.57;;;;;;;;;;5033361;28;20181;-88
2023/05/27 07:52:57;;;;;;;18.90;7.43;;;;;;;;;;5032275;28;20181;-88
2023/05/27 07:55:23;;;;;;;17.90;6.73;;;;;;;;;;5032733;28;20180;-89
2023/05/27 07:57:49;;;;;;;21.67;7.00;;;;;;;;;;5033379;28;20195;-89
2023/05/27 08:00:15;;;;;;;20.57;7.23;;;;;;;;;;5053267;28;20187;-89
2023/05/27 08:02:43;;;;;;;21.17;6.90;;;;;;;;;;5053115;28;20321;-88
2023/05/27 08:05:10;;;;;;;20.73;7.17;;;;;;;;;;5049417;28;20280;-88
2023/05/27 08:07:36;;;;;;;18.10;7.20;;;;;;;;;;5033016;28;20204;-88
2023/05/27 08:10:02;;;;;;;17.90;6.80;;;;;;;;;;5033078;28;20271;-88
2023/05/27 08:12:28;;;;;;;22.90;7.07;;;;;;;;;;5016597;28;20188;-86
2023/05/27 08:14:54;;;;;;;20.57;7.43;;;;;;;;;;5043084;28;20186;-89
2023/05/27 08:17:21;;;;;;;16.50;6.50;;;;;;;;;;5036277;28;20187;-89
2023/05/27 08:19:47;;;;;;;17.37;6.40;;;;;;;;;;5036086;28;20230;-89
2023/05/27 08:22:13;;;;;;;18.50;7.37;;;;;;;;;;5053759;28;20182;-82
2023/05/27 08:24:39;;;;;;;18.43;7.10;;;;;;;;;;5055133;28;20219;-81
2023/05/27 08:27:07;;;;;;;18.13;6.70;;;;;;;;;;5056361;28;20237;-81
2023/05/27 08:29:34;;;;;;;20.67;6.77;;;;;;;;;;5036161;28;20231;-81
2023/05/27 08:32:00;;;;;;;20.63;7.47;;;;;;;;;;5038975;28;20188;-81
2023/05/27 08:34:27;;;;;;;19.10;7.00;;;;;;;;;;5031310;28;20505;-82
2023/05/27 08:36:53;;;;;;;19.10;6.70;;;;;;;;;;5054068;28;20191;-82
2023/05/27 08:39:20;;;;;;;18.10;6.90;;;;;;;;;;5039275;28;20176;-89
2023/05/27 08:41:46;;;;;;;15.57;6.73;;;;;;;;;;5055363;28;20282;-90
2023/05/27 08:44:12;;;;;;;17.77;7.70;;;;;;;;;;5056774;28;20195;-89
2023/05/27 08:46:38;;;;;;;21.93;7.20;;;;;;;;;;5039642;28;20180;-90
2023/05/27 08:49:04;;;;;;;17.57;6.83;;;;;;;;;;5035755;28;20318;-90
2023/05/27 08:51:30;;;;;;;15.93;6.70;;;;;;;;;;5031959;28;20192;-90
2023/05/27 08:53:56;;;;;;;15.37;6.77;;;;;;;;;;5038324;28;20181;-89
2023/05/27 08:56:23;;;;;;;20.17;7.17;;;;;;;;;;5038579;28;20241;-84
2023/05/27 08:58:49;;;;;;;20.23;7.23;;;;;;;;;;5055761;28;20183;-84
2023/05/27 09:01:19;;;;;;;21.27;6.90;;;;;;;;;;5036856;28;20279;-84
2023/05/27 09:03:45;;;;;;;16.03;6.73;;;;;;;;;;5035491;28;20180;-84
2023/05/27 09:06:11;;;;;;;19.97;7.00;;;;;;;;;;5041108;28;20207;-84
2023/05/27 09:08:37;;;;;;;18.17;6.93;;;;;;;;;;5054326;28;20269;-84
2023/05/27 09:11:07;;;;;;;20.43;7.80;;;;;;;;;;5051352;28;20188;-84
2023/05/27 09:13:33;;;;;;;15.53;6.40;;;;;;;;;;5019867;28;20183;-91
2023/05/27 09:16:03;;;;;;;15.53;6.57;;;;;;;;;;5045608;28;20180;-90
2023/05/27 09:18:30;;;;;;;16.30;6.87;;;;;;;;;;5056333;28;20179;-90
2023/05/27 09:20:56;;;;;;;15.07;6.80;;;;;;;;;;5047793;28;20199;-90
2023/05/27 09:23:22;;;;;;;15.60;6.97;;;;;;;;;;5035292;28;20177;-90
2023/05/27 09:25:49;;;;;;;15.50;7.00;;;;;;;;;;5036513;28;20180;-90
2023/05/27 09:28:26;;;;;;;18.40;7.50;;;;;;;;;;5049887;28;20238;-85
2023/05/27 09:31:02;;;;;;;14.70;7.07;;;;;;;;;;5039048;28;20179;-84
2023/05/27 09:33:31;;;;;;;14.87;6.77;;;;;;;;;;5055032;28;20198;-84
2023/05/27 09:35:57;;;;;;;14.93;7.17;;;;;;;;;;5055147;28;20184;-84
2023/05/27 09:38:23;;;;;;;19.50;7.20;;;;;;;;;;5055179;28;20184;-84
2023/05/27 09:40:49;;;;;;;18.83;6.87;;;;;;;;;;5038368;28;20239;-84
2023/05/27 09:43:15;;;;;;;18.67;7.77;;;;;;;;;;5054467;28;20192;-84
2023/05/27 09:45:42;;;;;;;18.30;7.30;;;;;;;;;;5054854;28;20187;-81
2023/05/27 09:48:10;;;;;;;17.40;7.10;;;;;;;;;;5054956;28;20211;-81
2023/05/27 09:50:37;;;;;;;14.57;6.90;;;;;;;;;;5051780;28;20180;-81
2023/05/27 09:53:04;;;;;;;17.10;7.10;;;;;;;;;;5052507;28;20184;-81
2023/05/27 09:55:30;;;;;;;15.97;6.77;;;;;;;;;;5054552;28;20180;-81
2023/05/27 09:57:56;;;;;;;17.37;7.13;;;;;;;;;;5038185;28;20183;-81
2023/05/27 10:00:23;;;;;;;16.80;7.83;;;;;;;;;;5038126;28;20184;-81
2023/05/27 10:02:51;;;;;;;15.07;7.10;;;;;;;;;;5053942;28;20264;-83
2023/05/27 10:05:20;;;;;;;21.67;7.50;;;;;;;;;;5055714;28;20180;-83
2023/05/27 10:07:46;;;;;;;16.90;7.57;;;;;;;;;;5054357;28;20212;-83
2023/05/27 10:10:16;;;;;;;14.25;6.95;;;;;;;;;;5051352;28;20262;-83
2023/05/27 10:12:43;;;;;;;16.08;6.90;;;;;;;;;;5045553;28;20191;-83
2023/05/27 10:15:09;;;;;;;20.55;7.55;;;;;;;;;;5046006;28;20184;-83
2023/05/27 10:17:42;;;;;;;17.50;6.85;;;;;;;;;;5037711;28;20211;-83
2023/05/27 10:20:09;;;;;;;14.80;6.85;;;;;;;;;;5035169;28;20196;-85
2023/05/27 10:22:53;;;;;;;15.90;7.32;;;;;;;;;;5037171;28;20183;-84
2023/05/27 10:25:20;;;;;;;14.70;7.13;;;;;;;;;;5054062;28;20207;-85
2023/05/27 10:27:46;;;;;;;18.83;7.45;;;;;;;;;;5036853;28;20211;-85
2023/05/27 10:30:13;;;;;;;17.35;7.38;;;;;;;;;;5033852;28;20173;-85
2023/05/27 10:32:44;;;;;;;17.00;7.40;;;;;;;;;;5033417;28;20187;-85
2023/05/27 10:35:10;;;;;;;15.20;7.10;;;;;;;;;;5047309;28;20179;-81
2023/05/27 10:37:36;;;;;;;16.42;7.00;;;;;;;;;;5022774;28;20195;-81
2023/05/27 10:40:06;;;;;;;18.45;7.18;;;;;;;;;;5036652;28;20184;-81
2023/05/27 10:42:32;;;;;;;16.83;6.82;;;;;;;;;;5054925;28;20330;-81
2023/05/27 10:45:04;;;;;;;14.85;7.00;;;;;;;;;;5046496;28;20210;-81
2023/05/27 10:47:30;;;;;;;14.85;7.00;;;;;;;;;;5053027;28;20276;-81
2023/05/27 10:49:57;;;;;;;16.63;7.22;;;;;;;;;;5036606;28;20259;-81
2023/05/27 10:52:26;;;;;;;17.38;7.32;;;;;;;;;;5052373;28;20175;-82
2023/05/27 10:54:54;;;;;;;16.77;6.97;;;;;;;;;;5052928;28;20184;-82
2023/05/27 10:57:22;;;;;;;15.73;7.25;;;;;;;;;;5052104;28;20192;-83
2023/05/27 10:59:51;;;;;;;13.65;6.38;;;;;;;;;;5054480;28;20182;-83
2023/05/27 11:02:17;;;;;;;14.75;6.75;;;;;;;;;;5053795;28;20176;-82
2023/05/27 11:04:46;;;;;;;18.33;6.35;;;;;;;;;;5053071;28;20211;-83
2023/05/27 11:07:13;;;;;;;15.00;6.78;;;;;;;;;;5054285;28;20212;-83
2023/05/27 11:09:44;;;;;;;16.15;6.78;;;;;;;;;;5053444;28;20176;-89
2023/05/27 11:12:16;;;;;;;16.42;6.97;;;;;;;;;;5036616;28;20184;-89
2023/05/27 11:14:42;;;;;;;14.73;6.75;;;;;;;;;;5040609;28;20191;-89
2023/05/27 11:17:10;;;;;;;16.73;6.90;;;;;;;;;;5017292;28;20207;-89
2023/05/27 11:19:36;;;;;;;18.33;7.82;;;;;;;;;;5044078;28;20229;-89
2023/05/27 11:22:02;;;;;;;14.63;6.47;;;;;;;;;;5036962;28;20187;-89
2023/05/27 11:24:28;;;;;;;15.77;6.93;;;;;;;;;;5031860;28;20192;-89
2023/05/27 11:26:54;;;;;;;16.15;6.57;;;;;;;;;;5036312;22;20247;-82
2023/05/27 11:29:20;;;;;;;16.23;7.10;;;;;;;;;;5023031;28;20267;-82
2023/05/27 11:31:49;;;;;;;16.08;6.65;;;;;;;;;;5033325;28;20165;-82
2023/05/27 11:34:16;;;;;;;15.05;6.40;;;;;;;;;;5016181;28;20201;-82
2023/05/27 11:36:44;;;;;;;13.68;6.00;;;;;;;;;;5033012;28;20181;-82
2023/05/27 11:39:13;;;;;;;13.23;6.55;;;;;;;;;;5033965;28;20176;-82
2023/05/27 11:42:00;;;;;;;14.32;5.95;;;;;;;;;;5033038;28;20173;-84
2023/05/27 11:44:26;;;;;;;12.40;5.85;;;;;;;;;;5022154;28;20212;-84
2023/05/27 11:46:59;;;;;;;14.85;6.10;;;;;;;;;;5033421;28;20218;-89
2023/05/27 11:49:25;;;;;;;11.98;5.93;;;;;;;;;;5032858;28;20204;-88
2023/05/27 11:51:51;;;;;;;14.27;5.72;;;;;;;;;;5032620;28;20195;-89
2023/05/27 11:54:21;;;;;;;13.38;6.03;;;;;;;;;;5032396;28;20259;-89
2023/05/27 11:56:48;;;;;;;13.85;6.55;;;;;;;;;;5032794;28;20175;-89
2023/05/27 11:59:14;;;;;;;15.38;6.20;;;;;;;;;;5035840;28;20168;-79
2023/05/27 12:01:40;;;;;;;13.32;6.25;;;;;;;;;;5032191;28;20192;-79
2023/05/27 12:04:06;;;;;;;13.05;6.07;;;;;;;;;;5018225;28;20181;-80
2023/05/27 12:06:32;;;;;;;12.43;5.82;;;;;;;;;;5018499;28;20189;-79
2023/05/27 12:08:58;;;;;;;14.13;5.78;;;;;;;;;;5036617;28;20211;-79
2023/05/27 12:11:25;;;;;;;15.77;6.15;;;;;;;;;;5036572;28;20177;-79
2023/05/27 12:13:51;;;;;;;14.90;5.88;;;;;;;;;;5036524;28;20188;-79
2023/05/27 12:16:17;;;;;;;14.88;6.18;;;;;;;;;;5036739;28;20176;-84
2023/05/27 12:18:43;;;;;;;13.55;5.75;;;;;;;;;;5036339;28;20181;-84
2023/05/27 12:21:09;;;;;;;12.18;5.30;;;;;;;;;;5017086;28;20193;-84
2023/05/27 12:23:35;;;;;;;16.90;6.03;;;;;;;;;;5023464;28;20191;-84
2023/05/27 12:26:02;;;;;;;11.93;5.60;;;;;;;;;;4999967;28;20247;-84
2023/05/27 12:28:28;;;;;;;11.63;5.53;;;;;;;;;;5000389;28;20291;-84
2023/05/27 12:30:54;;;;;;;13.35;5.95;;;;;;;;;;5016604;28;20205;-84
2023/05/27 12:33:20;;;;;;;12.45;5.32;;;;;;;;;;5021054;28;20189;-84
2023/05/27 12:35:46;;;;;;;13.38;6.05;;;;;;;;;;5032874;28;20178;-84
2023/05/27 12:38:12;;;;;;;13.27;5.60;;;;;;;;;;5032994;28;20183;-84
2023/05/27 12:40:38;;;;;;;14.00;5.72;;;;;;;;;;5033032;28;20177;-84
2023/05/27 12:43:04;;;;;;;13.98;5.45;;;;;;;;;;5032271;28;20187;-84
2023/05/27 12:45:30;;;;;;;14.88;6.10;;;;;;;;;;5035332;28;20222;-84
2023/05/27 12:47:56;;;;;;;13.40;6.00;;;;;;;;;;5034863;28;20204;-84
2023/05/27 12:50:22;;;;;;;11.82;5.60;;;;;;;;;;5035965;28;20231;-80
2023/05/27 12:52:51;;;;;;;13.57;5.80;;;;;;;;;;5051080;28;20172;-80
2023/05/27 12:55:17;;;;;;;15.25;6.30;;;;;;;;;;5021629;28;20185;-81
2023/05/27 12:57:44;;;;;;;11.32;6.03;;;;;;;;;;5043972;28;20231;-80
2023/05/27 13:00:11;;;;;;;14.32;6.35;;;;;;;;;;5035691;28;20223;-80
2023/05/27 13:02:38;;;;;;;15.50;5.68;;;;;;;;;;5043358;28;20184;-80
2023/05/27 13:05:05;;;;;;;11.18;5.97;;;;;;;;;;5018949;28;20194;-84
2023/05/27 13:07:31;;;;;;;13.20;6.05;;;;;;;;;;5021972;28;20217;-85
2023/05/27 13:10:00;;;;;;;11.67;5.80;;;;;;;;;;5034605;28;20410;-84
2023/05/27 13:12:27;;;;;;;13.00;6.05;;;;;;;;;;5036464;28;20180;-84
2023/05/27 13:14:53;;;;;;;11.48;5.88;;;;;;;;;;5037671;28;20220;-84
2023/05/27 13:17:19;;;;;;;14.45;6.10;;;;;;;;;;5042860;28;20185;-84
2023/05/27 13:19:45;;;;;;;13.85;6.05;;;;;;;;;;5052375;28;20181;-84
2023/05/27 13:22:11;;;;;;;11.48;5.50;;;;;;;;;;5055580;28;20188;-82
2023/05/27 13:24:37;;;;;;;12.02;5.72;;;;;;;;;;5019885;28;20207;-82
2023/05/27 13:27:04;;;;;;;11.10;5.05;;;;;;;;;;5052249;28;20228;-82
2023/05/27 13:29:30;;;;;;;11.82;5.57;;;;;;;;;;5019657;28;20208;-82
2023/05/27 13:31:56;;;;;;;12.00;5.43;;;;;;;;;;5018935;28;20177;-82
2023/05/27 13:34:22;;;;;;;13.93;6.03;;;;;;;;;;5038512;28;20180;-82
2023/05/27 13:36:48;;;;;;;16.83;5.90;;;;;;;;;;5031032;28;20185;-83
2023/05/27 13:39:14;;;;;;;12.18;5.30;;;;;;;;;;4999670;28;20204;-85
2023/05/27 13:41:40;;;;;;;14.90;6.30;;;;;;;;;;5039332;28;20429;-84
2023/05/27 13:44:06;;;;;;;14.75;5.85;;;;;;;;;;5036148;28;20518;-84
2023/05/27 13:46:32;;;;;;;16.92;7.05;;;;;;;;;;5015040;28;20197;-84
2023/05/27 13:48:58;;;;;;;12.68;5.82;;;;;;;;;;4999044;28;20220;-83
2023/05/27 13:51:25;;;;;;;12.00;5.45;;;;;;;;;;5015567;28;20178;-84
2023/05/27 13:53:51;;;;;;;21.60;6.47;;;;;;;;;;5048803;28;20416;-89
2023/05/27 13:56:17;;;;;;;12.98;5.60;;;;;;;;;;5054754;28;20230;-79
2023/05/27 13:58:43;;;;;;;18.08;6.70;;;;;;;;;;5071565;28;20188;-80
2023/05/27 14:01:09;;;;;;;23.00;6.20;;;;;;;;;;5052293;28;20203;-79
2023/05/27 14:03:35;;;;;;;11.95;5.47;;;;;;;;;;5034630;28;20188;-80
2023/05/27 14:06:01;;;;;;;11.20;5.30;;;;;;;;;;5034259;28;20271;-80
2023/05/27 14:08:27;;;;;;;16.40;6.30;;;;;;;;;;5034045;28;20200;-80
2023/05/27 14:10:53;;;;;;;17.80;6.22;;;;;;;;;;5033900;28;20177;-80
2023/05/27 14:13:19;;;;;;;15.32;5.57;;;;;;;;;;5033910;28;20188;-82
2023/05/27 14:15:45;;;;;;;13.27;5.90;;;;;;;;;;5028743;28;20197;-82
2023/05/27 14:18:11;;;;;;;11.75;6.10;;;;;;;;;;5034262;28;20429;-81
2023/05/27 14:20:37;;;;;;;12.88;5.90;;;;;;;;;;5048703;28;20191;-81
2023/05/27 14:23:04;;;;;;;15.68;5.95;;;;;;;;;;5014125;28;20248;-82
2023/05/27 14:25:30;;;;;;;14.70;6.07;;;;;;;;;;5014819;28;20275;-81
2023/05/27 14:27:56;;;;;;;16.65;5.68;;;;;;;;;;5015194;28;20209;-81